Skagway, AK

8:18 PM AKDT on September 15, 2014 (GMT -0800)
Haines | Change Station
CLOSE
Current Station
Airport
Location: Haines,
Elevation: 16 ft
Nearby Weather Stations

Elev 16 ft 59.24 °N, 135.51 °W | Updated 7 minutes ago

Light Rain
Light Rain
52 °F
Feels Like 52 °F
N
0
Wind Variable Wind from North

Today
High -- | Low -- °F
--% Chance of Precip.
Yesterday
High -- | Low -- °F
Precip. -- in
6:30 AM 7:21 PM
Waning Gibbous, 49% visible
Pressure 29.87 in
Visibility 10.0 miles
Clouds Few 500 ft
Overcast 1500 ft
Dew Point 51 °F
Humidity 97%
Rainfall 0.06 in
Snow Depth 0 in , 18 in , 0 in
UV 0 out of 12
Pollen Not available.
Air Quality Not available.
Flu Activity Not available.
SPECI PAHN 160411Z AUTO 00000KT 10SM -RA FEW005 OVC015 11/11 A2987 RMK AO2 RAB10 P0000 T01110106 TSNO

More Conditions Fewer Conditions

Pressure 29.87 in
Visibility 10.0 miles
Clouds Few 500 ft
Overcast 1500 ft
Dew Point 51 °F
Humidity 97%
Rainfall 0.06 in
Snow Depth 0 in , 18 in , 0 in
UV 0 out of 12
Pollen Not available.
Air Quality Not available.
Flu Activity Not available.
SPECI PAHN 160411Z AUTO 00000KT 10SM -RA FEW005 OVC015 11/11 A2987 RMK AO2 RAB10 P0000 T01110106 TSNO

More Conditions Fewer Conditions

10-Day Weather Forecast

Almanac

Astronomy

Sep. 15, 2014 Rise Set
Actual Time 6:30 AM AKDT 7:21 PM AKDT
Civil Twilight 5:48 AM AKDT 8:02 PM AKDT
Nautical Twilight 4:57 AM AKDT 8:53 PM AKDT
Astronomical Twilight 4:00 AM AKDT 9:49 PM AKDT
Moon 10:43 PM AKDT (9/15) 3:04 PM AKDT (9/15)
Length of Visible Light 14h 14m
Length of Day
12h 51m
Tomorrow will be 5m 16s shorter.
Waning Gibbous, 49% of the Moon is Illuminated
Sep 16
Waning Gibbous
Sep 24
New
Oct 1
First Quarter
Oct 8
Full
Oct 15
Last Quarter

Today's Extremes

State Highs State Lows

Community

WunderPhotos

Upload Photos

1,753,699 photos uploaded!

Nearby

Snow Depth

Station Depth Elevation
Grandview 0 in 1100 ft
Cooper Lake 18 in 1200 ft
Little Chena Ridge 0 in 2000 ft
Long Lake 0 in 820 ft
Grouse Creek Divide 0 in 700 ft

Earthquake Activity

City Distance Mag. Time & Date
No recent earthquake activity has been reported nearby.
Minimum magnitude displayed is 2.5.

Coastal Water Temperatures

Place Temperature
No Stations Reporting

Nearby Weather Stations